Time;durP1;ratioP1;P1;durP2;ratioP2;P2;SDS_P1;SDS_P2;PMS_P1;PMS_P2;Temp;Humidity;BMP_temperature;BMP_pressure;BME280_temperature;BME280_humidity;BME280_pressure;Samples;Min_cycle;Max_cycle;Signal;HPM_P1;HPM_P2
2024/02/15 00:00:20;;;;;;;34.10;20.50;;;;;;;-0.65;88.63;99096.56;103611;1283;72900;-86
2024/02/15 00:02:47;;;;;;;25.90;18.90;;;;;;;-0.65;88.74;99103.41;103549;1282;74551;-86
2024/02/15 00:05:15;;;;;;;28.90;19.00;;;;;;;-0.66;88.76;99100.09;103591;1282;71551;-86
2024/02/15 00:07:43;;;;;;;29.70;19.00;;;;;;;-0.68;88.53;99093.59;103796;1283;61797;-86
2024/02/15 00:10:11;;;;;;;28.20;18.30;;;;;;;-0.69;88.47;99097.84;103633;1283;61189;-84
2024/02/15 00:12:38;;;;;;;29.90;19.60;;;;;;;-0.69;88.33;99096.08;103640;1283;73870;-85
2024/02/15 00:15:05;;;;;;;28.10;18.80;;;;;;;-0.68;88.29;99097.13;103637;1282;75431;-85
2024/02/15 00:17:35;;;;;;;29.70;18.00;;;;;;;-0.69;88.02;99096.61;103575;1287;72289;-86
2024/02/15 00:20:09;;;;;;;21.10;15.80;;;;;;;-0.72;87.69;99098.24;103325;1282;61215;-86
2024/02/15 00:22:36;;;;;;;26.40;18.40;;;;;;;-0.79;87.71;99093.58;104650;1282;61157;-86
2024/02/15 00:25:05;;;;;;;29.10;19.40;;;;;;;-0.85;88.03;99098.58;105497;1282;73005;-86
2024/02/15 00:27:35;;;;;;;23.90;17.00;;;;;;;-0.92;88.70;99101.28;106795;1282;73307;-84
2024/02/15 00:30:07;;;;;;;;;;;;;;;-0.96;89.09;99107.67;107060;1282;72898;-84
2024/02/15 00:32:36;;;;;;;23.20;17.80;;;;;;;-0.96;89.38;99112.60;107034;1282;61345;-84
2024/02/15 00:35:09;;;;;;;18.80;15.60;;;;;;;-0.95;89.81;99110.45;107051;1282;59946;-84
2024/02/15 00:37:37;;;;;;;24.00;18.70;;;;;;;-0.92;90.17;99109.38;106839;1282;73945;-86
2024/02/15 00:40:05;;;;;;;24.10;17.00;;;;;;;-0.91;90.37;99113.57;106302;1282;1002301;-84
2024/02/15 00:42:33;;;;;;;22.80;17.80;;;;;;;-0.89;90.42;99115.31;106634;1283;72793;-85
2024/02/15 00:45:00;;;;;;;23.30;17.40;;;;;;;-0.88;90.40;99115.48;104824;1281;61176;-84
2024/02/15 00:47:28;;;;;;;20.60;15.60;;;;;;;-0.88;90.32;99112.66;105548;1282;61081;-85
2024/02/15 00:49:55;;;;;;;21.40;15.20;;;;;;;-0.88;90.21;99106.86;105640;1283;74946;-84
2024/02/15 00:52:23;;;;;;;18.60;14.20;;;;;;;-0.89;89.99;99105.11;104638;1287;73388;-85
2024/02/15 00:54:50;;;;;;;21.00;15.70;;;;;;;-0.88;89.77;99104.21;104587;1282;71515;-84
2024/02/15 00:57:17;;;;;;;18.30;15.60;;;;;;;-0.86;89.63;99097.35;104497;1285;61080;-85
2024/02/15 00:59:44;;;;;;;18.70;14.00;;;;;;;-0.86;89.99;99090.14;104225;1283;60994;-85
2024/02/15 01:02:12;;;;;;;20.30;15.50;;;;;;;-0.86;90.21;99086.63;103750;1285;74822;-84
2024/02/15 01:04:39;;;;;;;18.80;14.90;;;;;;;-0.86;90.23;99084.86;103667;1283;74378;-85
2024/02/15 01:07:07;;;;;;;18.90;14.00;;;;;;;-0.87;90.10;99076.08;103684;1283;72507;-88
2024/02/15 01:09:35;;;;;;;22.80;14.90;;;;;;;-0.89;89.79;99080.50;103570;1283;60989;-85
2024/02/15 01:12:05;;;;;;;22.10;16.30;;;;;;;-0.93;89.58;99078.27;103382;1286;61171;-85
2024/02/15 01:14:33;;;;;;;20.00;15.10;;;;;;;-0.97;89.28;99074.45;103378;1288;72763;-86
2024/02/15 01:17:00;;;;;;;21.30;15.30;;;;;;;-1.01;89.21;99075.21;103423;1287;74693;-86
2024/02/15 01:19:27;;;;;;;20.70;15.00;;;;;;;-1.04;89.17;99074.20;103470;1283;72615;-84
2024/02/15 01:21:55;;;;;;;21.60;16.10;;;;;;;-1.07;89.36;99075.45;103610;1285;61189;-85
2024/02/15 01:24:25;;;;;;;19.30;14.20;;;;;;;-1.10;89.36;99076.54;103675;1285;61326;-86
2024/02/15 01:26:53;;;;;;;23.10;15.20;;;;;;;-1.12;89.55;99075.31;103544;1283;73997;-84
2024/02/15 01:29:21;;;;;;;22.10;14.70;;;;;;;-1.15;89.68;99075.71;103061;1286;73316;-85
2024/02/15 01:31:48;;;;;;;15.80;13.70;;;;;;;-1.18;89.86;99072.23;103623;1283;73730;-87
2024/02/15 01:34:15;;;;;;;19.40;13.20;;;;;;;-1.21;89.93;99075.95;103676;1286;61169;-86
2024/02/15 01:36:43;;;;;;;18.00;13.30;;;;;;;-1.23;90.10;99077.91;103771;1284;61141;-85
2024/02/15 01:39:10;;;;;;;19.20;14.70;;;;;;;-1.24;90.32;99078.10;103709;1285;73071;-86
2024/02/15 01:41:38;;;;;;;16.80;13.50;;;;;;;-1.24;90.63;99076.52;103514;1288;73026;-85
2024/02/15 01:44:06;;;;;;;16.10;11.90;;;;;;;-1.23;90.90;99074.39;103707;1283;73820;-85
2024/02/15 01:46:33;;;;;;;12.00;10.60;;;;;;;-1.22;90.79;99075.45;103738;1283;61121;-85
2024/02/15 01:49:00;;;;;;;17.90;14.70;;;;;;;-1.23;90.79;99081.79;103632;1282;61150;-84
2024/02/15 01:51:28;;;;;;;20.70;15.00;;;;;;;-1.25;90.51;99084.96;103659;1281;73750;-86
2024/02/15 01:53:55;;;;;;;16.30;14.40;;;;;;;-1.29;90.44;99083.59;103529;1282;73258;-84
2024/02/15 01:56:23;;;;;;;23.30;16.30;;;;;;;-1.32;90.46;99084.86;103773;1282;71902;-83
2024/02/15 01:58:50;;;;;;;21.40;15.80;;;;;;;-1.35;90.73;99088.21;103277;1288;61561;-85
2024/02/15 02:01:17;;;;;;;21.80;16.70;;;;;;;-1.37;91.04;99084.73;103605;1284;61232;-84
2024/02/15 02:03:45;;;;;;;25.10;17.40;;;;;;;-1.41;90.92;99085.46;103632;1287;74849;-83
2024/02/15 02:06:12;;;;;;;25.60;17.50;;;;;;;-1.43;90.67;99086.19;103701;1285;74304;-85
2024/02/15 02:08:39;;;;;;;23.30;16.00;;;;;;;-1.45;90.40;99082.00;103513;1282;70645;-86
2024/02/15 02:11:06;;;;;;;24.90;16.60;;;;;;;-1.46;90.55;99082.37;103458;1283;61218;-86
2024/02/15 02:13:33;;;;;;;22.90;16.10;;;;;;;-1.49;90.41;99081.86;103690;1285;61211;-84
2024/02/15 02:16:00;;;;;;;22.70;16.50;;;;;;;-1.53;90.47;99084.70;103170;1288;74809;-85
2024/02/15 02:18:27;;;;;;;22.10;15.50;;;;;;;-1.56;90.57;99089.48;103599;1283;74776;-85
2024/02/15 02:20:55;;;;;;;22.90;16.50;;;;;;;-1.59;90.71;99094.06;103716;1283;71477;-86
2024/02/15 02:23:26;;;;;;;20.60;16.30;;;;;;;-1.60;90.71;99096.20;103601;1282;61177;-86
2024/02/15 02:25:54;;;;;;;27.80;17.40;;;;;;;-1.64;90.99;99093.41;103792;1283;61157;-86
2024/02/15 02:28:22;;;;;;;21.80;16.80;;;;;;;-1.66;90.91;99095.71;103678;1283;73838;-85
2024/02/15 02:30:50;;;;;;;24.10;17.60;;;;;;;-1.68;90.93;99092.91;103591;1285;73219;-87
2024/02/15 02:33:21;;;;;;;22.50;17.30;;;;;;;-1.68;91.06;99092.76;103649;1285;71241;-85
2024/02/15 02:35:49;;;;;;;23.60;17.40;;;;;;;-1.68;91.13;99097.13;103658;1285;61224;-85
2024/02/15 02:38:16;;;;;;;24.40;17.60;;;;;;;-1.68;91.00;99096.62;103625;1285;61092;-85
2024/02/15 02:40:44;;;;;;;24.40;18.30;;;;;;;-1.69;91.05;99097.49;103583;1285;72637;-85
2024/02/15 02:43:11;;;;;;;20.40;16.70;;;;;;;-1.70;91.27;99099.98;103695;1285;75348;-85
2024/02/15 02:45:38;;;;;;;23.40;17.30;;;;;;;-1.71;91.34;99101.91;103649;1283;72359;-85
2024/02/15 02:48:06;;;;;;;25.10;18.10;;;;;;;-1.72;91.12;99100.69;103631;1283;61224;-86
2024/02/15 02:50:34;;;;;;;23.40;16.00;;;;;;;-1.74;90.99;99102.83;103658;1285;61217;-86
2024/02/15 02:53:01;;;;;;;18.70;15.10;;;;;;;-1.77;91.35;99105.99;103477;1283;238428;-85
2024/02/15 02:55:29;;;;;;;22.30;15.50;;;;;;;-1.78;91.11;99106.89;104266;1282;74009;-84
2024/02/15 02:57:56;;;;;;;22.70;17.30;;;;;;;-1.79;91.08;99111.29;104610;1282;70929;-84
2024/02/15 03:00:23;;;;;;;18.70;15.20;;;;;;;-1.79;91.18;99110.93;104843;1282;61522;-86
2024/02/15 03:02:50;;;;;;;24.70;15.00;;;;;;;-1.78;91.16;99114.61;103703;1285;61497;-86
2024/02/15 03:05:20;;;;;;;20.80;15.70;;;;;;;-1.77;91.30;99111.62;103712;1285;73647;-85
2024/02/15 03:07:51;;;;;;;23.10;14.80;;;;;;;-1.76;91.41;99110.39;103684;1285;74545;-84
2024/02/15 03:10:18;;;;;;;22.30;15.30;;;;;;;-1.76;91.55;99109.51;103749;1288;71415;-85
2024/02/15 03:12:46;;;;;;;24.60;15.70;;;;;;;-1.76;91.64;99111.42;103821;1283;61298;-84
2024/02/15 03:15:15;;;;;;;19.50;15.20;;;;;;;-1.75;91.46;99111.42;103867;1281;61559;-85
2024/02/15 03:17:45;;;;;;;21.20;15.10;;;;;;;-1.75;91.48;99113.88;104267;1283;74854;-84
2024/02/15 03:20:21;;;;;;;23.80;15.50;;;;;;;-1.75;91.35;99119.15;105259;1282;74363;-86
2024/02/15 03:22:54;;;;;;;22.70;15.00;;;;;;;-1.76;90.83;99115.12;104089;1283;71539;-86
2024/02/15 03:25:24;;;;;;;21.00;14.80;;;;;;;-1.76;90.69;99113.73;103633;1285;62435;-85
2024/02/15 03:27:58;;;;;;;19.80;14.20;;;;;;;-1.76;90.69;99106.52;103604;1283;61868;-86
2024/02/15 03:30:26;;;;;;;20.20;14.10;;;;;;;-1.76;90.71;99111.09;103574;1286;73660;-87
2024/02/15 03:32:53;;;;;;;25.90;17.00;;;;;;;-1.76;90.90;99110.73;103658;1285;74930;-85
2024/02/15 03:35:22;;;;;;;17.70;13.30;;;;;;;-1.76;91.01;99108.80;103694;1283;74077;-85
2024/02/15 03:37:53;;;;;;;15.90;12.30;;;;;;;-1.75;91.12;99104.23;103639;1282;61234;-86
2024/02/15 03:40:21;;;;;;;17.60;12.90;;;;;;;-1.75;91.13;99111.42;103652;1285;61231;-84
2024/02/15 03:42:50;;;;;;;24.90;13.10;;;;;;;-1.76;91.13;99115.30;103704;1283;74791;-83
2024/02/15 03:45:17;;;;;;;16.80;12.70;;;;;;;-1.76;90.86;99112.48;103530;1288;75589;-85
2024/02/15 03:47:45;;;;;;;16.70;12.10;;;;;;;-1.78;90.56;99111.27;103672;1282;70472;-85
2024/02/15 03:50:14;;;;;;;19.70;12.90;;;;;;;-1.80;90.47;99111.11;103267;1288;61110;-86
2024/02/15 03:52:43;;;;;;;19.00;11.60;;;;;;;-1.81;90.52;99117.96;103707;1283;61660;-86
2024/02/15 03:55:11;;;;;;;12.40;11.00;;;;;;;-1.81;90.51;99122.89;103344;1288;73873;-85
2024/02/15 03:57:43;;;;;;;13.70;11.80;;;;;;;-1.81;90.52;99119.55;103544;1288;74142;-86
2024/02/15 04:00:11;;;;;;;17.00;11.50;;;;;;;-1.81;90.57;99117.62;103907;1288;71883;-86
2024/02/15 04:02:40;;;;;;;14.20;10.40;;;;;;;-1.83;90.65;99116.40;103951;1285;61211;-86
2024/02/15 04:05:10;;;;;;;17.70;12.00;;;;;;;-1.83;90.81;99117.64;103523;1289;62698;-85
2024/02/15 04:07:37;;;;;;;18.60;12.10;;;;;;;-1.84;90.74;99115.88;103765;1286;73565;-86
2024/02/15 04:10:06;;;;;;;16.40;11.90;;;;;;;-1.85;90.30;99113.27;103873;1285;74598;-86
2024/02/15 04:12:33;;;;;;;14.60;13.00;;;;;;;-1.87;90.48;99114.14;103734;1285;72679;-86
2024/02/15 04:15:05;;;;;;;19.20;11.40;;;;;;;-1.89;90.32;99111.36;103536;1288;61127;-86
2024/02/15 04:17:34;;;;;;;17.40;12.50;;;;;;;-1.91;90.31;99110.84;103635;1283;61211;-86
2024/02/15 04:20:04;;;;;;;18.50;12.10;;;;;;;-1.94;90.38;99111.39;103139;1288;71921;-87
2024/02/15 04:22:43;;;;;;;18.20;11.40;;;;;;;-1.94;90.19;99112.45;103164;1288;73633;-86
2024/02/15 04:25:10;;;;;;;22.60;12.10;;;;;;;-1.95;90.19;99115.10;103277;1283;72726;-86
2024/02/15 04:27:38;;;;;;;27.80;11.00;;;;;;;-1.94;90.36;99108.59;103284;1288;61167;-87
2024/02/15 04:30:10;;;;;;;18.20;12.30;;;;;;;-1.94;89.97;99098.08;103602;1285;61585;-86
2024/02/15 04:32:38;;;;;;;18.10;14.30;;;;;;;-1.98;89.36;99097.20;103610;1286;74042;-86
2024/02/15 04:35:06;;;;;;;25.80;17.00;;;;;;;-2.05;89.15;99090.94;103610;1283;75376;-85
2024/02/15 04:37:37;;;;;;;28.90;21.20;;;;;;;-2.12;89.24;99091.16;103338;1288;72816;-86
2024/02/15 04:40:09;;;;;;;26.90;20.10;;;;;;;-2.20;89.75;99101.05;103570;1286;61199;-84
2024/02/15 04:42:41;;;;;;;21.00;16.60;;;;;;;-2.24;90.51;99108.27;103790;1285;61125;-85
2024/02/15 04:45:10;;;;;;;20.50;16.30;;;;;;;-2.27;90.96;99108.65;104523;1283;73869;-84
2024/02/15 04:47:40;;;;;;;17.10;15.20;;;;;;;-2.25;91.18;99102.84;104384;1285;74213;-84
2024/02/15 04:50:09;;;;;;;21.30;16.10;;;;;;;-2.23;91.52;99102.66;103618;1285;72589;-85
2024/02/15 04:52:37;;;;;;;21.20;15.60;;;;;;;-2.21;91.74;99102.81;103582;1283;61233;-85
2024/02/15 04:55:07;;;;;;;17.90;14.40;;;;;;;-2.20;91.88;99101.23;103550;1287;61186;-86
2024/02/15 04:57:36;;;;;;;19.70;14.10;;;;;;;-2.20;92.22;99101.23;103544;1288;73060;-86
2024/02/15 05:00:10;;;;;;;19.50;14.40;;;;;;;-2.21;92.09;99098.95;103551;1283;74807;-84
2024/02/15 05:02:40;;;;;;;21.50;15.40;;;;;;;-2.22;92.15;99094.75;103731;1283;71749;-85
2024/02/15 05:05:09;;;;;;;23.90;16.20;;;;;;;-2.21;92.16;99094.75;103414;1288;61176;-86
2024/02/15 05:07:39;;;;;;;22.50;16.30;;;;;;;-2.23;91.75;99093.52;103241;1290;61164;-86
2024/02/15 05:10:08;;;;;;;21.30;14.30;;;;;;;-2.24;91.58;99094.58;103526;1285;73985;-86
2024/02/15 05:12:42;;;;;;;22.60;16.20;;;;;;;-2.27;91.59;99097.23;103661;1285;73946;-85
2024/02/15 05:15:10;;;;;;;25.70;17.30;;;;;;;-2.29;91.28;99099.17;103346;1285;73487;-87
2024/02/15 05:17:40;;;;;;;19.50;13.90;;;;;;;-2.31;91.75;99104.09;103277;1289;60477;-87
2024/02/15 05:20:13;;;;;;;26.10;14.20;;;;;;;-2.33;91.87;99103.23;103449;1283;61237;-86
2024/02/15 05:22:45;;;;;;;21.00;14.00;;;;;;;-2.33;92.29;99103.77;103603;1285;73020;-86
2024/02/15 05:25:22;;;;;;;28.30;18.80;;;;;;;-2.33;92.37;99101.48;105294;1288;75516;-85
2024/02/15 05:27:55;;;;;;;28.70;16.60;;;;;;;-2.32;92.42;99102.17;106343;1283;72198;-82
2024/02/15 05:30:25;;;;;;;21.60;14.10;;;;;;;-2.30;92.12;99106.38;104934;1285;61673;-84
2024/02/15 05:32:53;;;;;;;23.50;15.50;;;;;;;-2.26;91.99;99106.18;103461;1288;61164;-84
2024/02/15 05:35:21;;;;;;;28.70;17.90;;;;;;;-2.24;92.16;99106.70;104018;1285;73783;-84
2024/02/15 05:37:52;;;;;;;29.70;19.60;;;;;;;-2.24;91.82;99109.67;103881;1289;74517;-84
2024/02/15 05:40:20;;;;;;;31.10;20.10;;;;;;;-2.28;91.50;99108.82;103591;1289;74052;-84
2024/02/15 05:42:47;;;;;;;21.60;14.80;;;;;;;-2.34;91.48;99115.52;103841;1283;61244;-83
2024/02/15 05:45:34;;;;;;;22.90;16.20;;;;;;;-2.39;92.23;99123.80;104053;1282;61087;-84
2024/02/15 05:48:06;;;;;;;22.90;15.40;;;;;;;-2.41;92.81;99121.70;103892;1288;72654;-85
2024/02/15 05:51:08;;;;;;;18.00;13.20;;;;;;;-2.40;93.55;99127.84;103858;1286;73287;-84
2024/02/15 05:53:35;;;;;;;19.30;14.50;;;;;;;-2.38;95.09;99126.58;104436;1285;73364;-84
2024/02/15 05:56:06;;;;;;;20.40;14.00;;;;;;;-2.36;95.70;99126.41;104885;1282;61585;-82
2024/02/15 05:58:34;;;;;;;49.90;24.70;;;;;;;-2.32;96.52;99129.19;104676;1286;61091;-82
2024/02/15 06:01:04;;;;;;;57.80;34.20;;;;;;;-2.27;97.29;99130.58;103493;1282;74010;-83
2024/02/15 06:03:33;;;;;;;40.40;25.90;;;;;;;-2.21;97.95;99135.63;103248;1299;74630;-84
2024/02/15 06:06:02;;;;;;;45.00;24.10;;;;;;;-2.15;98.72;99130.50;103525;1283;72911;-84
2024/02/15 06:08:30;;;;;;;63.50;34.70;;;;;;;-2.10;99.04;99137.48;104144;1287;61097;-85
2024/02/15 06:11:01;;;;;;;78.30;40.80;;;;;;;-2.06;99.27;99142.20;104186;1283;61132;-83
2024/02/15 06:13:29;;;;;;;62.00;31.80;;;;;;;-2.04;99.24;99143.41;103668;1288;74248;-84
2024/02/15 06:15:57;;;;;;;47.90;28.40;;;;;;;-2.01;99.40;99144.43;103842;1286;73317;-84
2024/02/15 06:18:27;;;;;;;58.40;26.50;;;;;;;-1.96;99.52;99144.23;103644;1288;74005;-84
2024/02/15 06:20:59;;;;;;;103.80;56.90;;;;;;;-1.91;99.86;99142.79;103285;1288;61589;-86
2024/02/15 06:24:03;;;;;;;48.00;26.20;;;;;;;-1.84;100.00;99146.08;103169;1286;61305;-85
2024/02/15 06:26:33;;;;;;;40.40;24.80;;;;;;;-1.76;100.00;99144.63;103384;1288;74678;-85
2024/02/15 06:40:23;;;;;;;28.40;20.90;;;;;;;-1.38;100.00;99155.89;103153;1285;72683;-86
2024/02/15 06:42:52;;;;;;;22.80;15.90;;;;;;;-1.34;100.00;99155.16;103341;1289;73080;-89
2024/02/15 06:45:21;;;;;;;23.60;15.60;;;;;;;-1.29;99.88;99161.61;103694;1285;70803;-85
2024/02/15 06:47:49;;;;;;;25.10;14.30;;;;;;;-1.24;99.63;99164.38;103749;1285;61050;-83
2024/02/15 06:50:17;;;;;;;18.40;12.00;;;;;;;-1.20;99.31;99170.48;104463;1285;62614;-84
2024/02/15 06:53:01;;;;;;;15.00;11.50;;;;;;;-1.15;98.44;99174.13;104408;1290;72888;-84
2024/02/15 06:55:36;;;;;;;23.00;11.70;;;;;;;-1.11;98.17;99169.70;104125;1288;75725;-84
2024/02/15 06:58:05;;;;;;;16.90;10.10;;;;;;;-1.04;97.87;99171.75;103739;1283;73066;-84
2024/02/15 07:00:33;;;;;;;15.20;10.90;;;;;;;-0.99;97.80;99173.63;104569;1282;61652;-86
2024/02/15 07:03:01;;;;;;;14.20;9.70;;;;;;;-0.93;97.53;99174.27;104369;1283;61160;-86
2024/02/15 07:05:33;;;;;;;15.00;8.90;;;;;;;-0.88;97.44;99175.26;105771;1283;73966;-88
2024/02/15 07:12:15;;;;;;;18.50;9.10;;;;;;;-0.77;96.57;99174.63;104485;1287;74481;-89
2024/02/15 07:15:42;;;;;;;;;;;;;;;;;;;;;
2024/02/15 07:19:09;;;;;;;6.70;5.30;;;;;;;-0.70;95.11;99168.58;103058;1295;61215;-88
2024/02/15 07:21:51;;;;;;;16.30;9.00;;;;;;;-0.70;94.83;99168.20;103034;1300;74178;-90
2024/02/15 07:24:51;;;;;;;21.30;7.90;;;;;;;-0.68;94.62;99168.54;103064;1298;74756;-90
2024/02/15 07:28:32;;;;;;;20.20;8.00;;;;;;;-0.66;94.33;99170.10;103093;1293;72612;-90
2024/02/15 07:31:28;;;;;;;;;;;;;;;;;;;;;
2024/02/15 07:34:47;;;;;;;15.60;11.30;;;;;;;-0.59;94.08;99167.20;105414;1299;59643;-89
2024/02/15 07:38:14;;;;;;;17.70;13.60;;;;;;;-0.53;94.14;99164.67;102956;1303;74178;-88
2024/02/15 07:40:53;;;;;;;12.80;10.70;;;;;;;-0.48;94.27;99171.30;102184;1307;76883;-90
2024/02/15 07:44:15;;;;;;;30.40;15.70;;;;;;;-0.44;94.07;99154.70;102413;1306;74361;-87
2024/02/15 07:47:26;;;;;;;31.00;19.20;;;;;;;-0.38;94.07;99158.67;104229;1300;60692;-88
2024/02/15 07:50:20;;;;;;;64.50;28.30;;;;;;;-0.31;94.33;99155.06;104324;1299;61364;-86
2024/02/15 07:52:53;;;;;;;43.80;25.20;;;;;;;-0.22;94.71;99153.00;104045;1299;73288;-86
2024/02/15 07:55:20;;;;;;;48.60;25.20;;;;;;;-0.12;94.91;99156.75;104306;1293;74142;-87
2024/02/15 07:57:48;;;;;;;43.50;25.70;;;;;;;-0.02;95.24;99156.42;104397;1296;72573;-88
2024/02/15 08:00:16;;;;;;;27.50;17.10;;;;;;;0.08;95.15;99154.16;104460;1294;61080;-83
2024/02/15 08:02:47;;;;;;;24.00;17.50;;;;;;;0.17;95.04;99157.02;104910;1289;61202;-85
2024/02/15 08:05:15;;;;;;;17.60;14.00;;;;;;;0.25;94.94;99153.03;105555;1291;72476;-88
2024/02/15 08:07:44;;;;;;;23.30;15.90;;;;;;;0.32;94.62;99150.09;105362;1286;74828;-84
2024/02/15 08:10:14;;;;;;;28.50;17.50;;;;;;;0.39;94.02;99149.46;105341;1287;71109;-88
2024/02/15 08:12:52;;;;;;;24.30;18.00;;;;;;;0.46;94.07;99149.00;105577;1287;61418;-87
2024/02/15 08:15:30;;;;;;;21.60;15.00;;;;;;;0.56;93.90;99145.13;104123;1288;61235;-90
2024/02/15 08:18:04;;;;;;;18.10;13.80;;;;;;;0.67;93.53;99140.90;103994;1283;74859;-89
2024/02/15 08:20:35;;;;;;;16.00;12.90;;;;;;;0.77;93.27;99141.95;104516;1282;73438;-88
2024/02/15 08:23:04;;;;;;;39.80;11.60;;;;;;;0.87;92.85;99145.48;103578;1286;71473;-86
2024/02/15 08:25:37;;;;;;;32.90;16.80;;;;;;;0.95;92.59;99141.96;103668;1283;61282;-87
2024/02/15 08:28:07;;;;;;;26.30;16.50;;;;;;;1.03;92.57;99138.64;103667;1283;61303;-87
2024/02/15 08:30:34;;;;;;;20.90;15.00;;;;;;;1.11;92.05;99135.86;103770;1283;74904;-87
2024/02/15 08:33:04;;;;;;;17.30;13.10;;;;;;;1.18;91.97;99133.43;103406;1283;74568;-85
2024/02/15 08:35:32;;;;;;;14.60;10.00;;;;;;;1.24;91.53;99130.48;103565;1290;72155;-85
2024/02/15 08:37:59;;;;;;;10.40;9.10;;;;;;;1.32;91.40;99130.15;103323;1288;62045;-86
2024/02/15 08:40:27;;;;;;;14.70;10.50;;;;;;;1.41;91.20;99133.13;103964;1285;61233;-86
2024/02/15 08:42:55;;;;;;;14.10;11.00;;;;;;;1.49;91.35;99131.75;103908;1286;73789;-86
2024/02/15 08:45:23;;;;;;;11.40;8.50;;;;;;;1.57;91.27;99128.39;103458;1282;75365;-87
2024/02/15 08:48:18;;;;;;;13.30;11.00;;;;;;;1.65;90.86;99127.54;103527;1287;71554;-89
2024/02/15 08:51:00;;;;;;;15.20;10.60;;;;;;;1.73;90.63;99125.75;104000;1286;61168;-88
2024/02/15 08:53:29;;;;;;;16.10;10.90;;;;;;;1.81;90.36;99127.00;103776;1283;61174;-88
2024/02/15 08:56:00;;;;;;;15.90;10.80;;;;;;;1.90;90.50;99126.80;104373;1289;72921;-86
2024/02/15 08:58:30;;;;;;;15.50;10.40;;;;;;;1.99;90.36;99118.66;104999;1282;75182;-85
2024/02/15 09:00:58;;;;;;;13.30;9.00;;;;;;;2.08;89.96;99118.77;104657;1285;72743;-86
2024/02/15 09:03:26;;;;;;;16.70;9.00;;;;;;;2.17;89.90;99123.16;104002;1286;61260;-92
2024/02/15 09:05:59;;;;;;;9.00;7.90;;;;;;;2.25;89.80;99123.52;103695;1283;61106;-89
2024/02/15 09:08:51;;;;;;;15.10;10.80;;;;;;;2.32;90.34;99127.07;104150;1285;72947;-89
2024/02/15 09:11:30;;;;;;;14.00;11.40;;;;;;;2.40;90.46;99127.39;103508;1291;74073;-90
2024/02/15 09:14:09;;;;;;;21.50;14.10;;;;;;;2.47;91.19;99127.75;103322;1288;73770;-90
2024/02/15 09:16:57;;;;;;;32.00;15.40;;;;;;;2.58;91.17;99130.13;103314;1284;61747;-87
2024/02/15 09:19:38;;;;;;;36.80;22.10;;;;;;;2.70;91.21;99132.81;103428;1288;61261;-89
2024/02/15 09:22:12;;;;;;;30.90;16.80;;;;;;;2.80;90.96;99133.63;103329;1289;73969;-88
2024/02/15 09:24:43;;;;;;;18.70;13.80;;;;;;;2.93;91.25;99134.20;103570;1286;73960;-88
2024/02/15 09:27:17;;;;;;;17.00;12.70;;;;;;;3.03;91.24;99131.63;103686;1288;72842;-90
2024/02/15 09:29:48;;;;;;;12.90;9.50;;;;;;;3.15;91.54;99128.65;103692;1287;61182;-88
2024/02/15 09:32:44;;;;;;;9.10;7.50;;;;;;;3.28;90.55;99129.18;104283;1287;63011;-88
2024/02/15 09:35:12;;;;;;;16.00;8.60;;;;;;;3.42;89.85;99125.23;103448;1284;73990;-88
2024/02/15 09:37:48;;;;;;;11.40;7.60;;;;;;;3.56;89.96;99121.80;104264;1286;73282;-90
2024/02/15 09:40:17;;;;;;;8.60;7.60;;;;;;;3.72;90.30;99118.00;103886;1285;73408;-89
2024/02/15 09:43:04;;;;;;;13.70;8.40;;;;;;;3.88;89.45;99121.41;103369;1285;60632;-91
2024/02/15 09:45:34;;;;;;;21.40;11.50;;;;;;;4.01;89.08;99122.05;103905;1281;61198;-88
2024/02/15 09:48:08;;;;;;;23.20;12.70;;;;;;;4.17;87.60;99120.15;103542;1283;74789;-90
2024/02/15 09:50:37;;;;;;;21.10;11.90;;;;;;;4.31;86.82;99114.55;104785;1283;76016;-84
2024/02/15 09:53:06;;;;;;;24.20;14.20;;;;;;;4.47;85.98;99116.36;104953;1282;72805;-85
2024/02/15 09:55:34;;;;;;;20.70;14.00;;;;;;;4.63;84.79;99116.88;104657;1282;60344;-85
2024/02/15 09:58:04;;;;;;;25.10;15.00;;;;;;;4.81;84.51;99114.30;104923;1283;61199;-86
2024/02/15 10:00:32;;;;;;;17.40;11.60;;;;;;;5.00;83.71;99112.92;105553;1281;73204;-85
2024/02/15 10:03:01;;;;;;;11.90;8.50;;;;;;;5.18;81.79;99106.48;105570;1283;74010;-84
2024/02/15 10:05:29;;;;;;;11.60;6.90;;;;;;;5.33;79.02;99108.23;104807;1289;75350;-88
2024/02/15 10:07:56;;;;;;;13.50;7.70;;;;;;;5.48;78.58;99104.64;103899;1287;61201;-87
2024/02/15 10:10:25;;;;;;;9.50;7.20;;;;;;;5.60;78.16;99098.31;103508;1283;61151;-87
2024/02/15 10:12:54;;;;;;;11.60;7.60;;;;;;;5.72;77.21;99095.91;104421;1281;72340;-86
2024/02/15 10:15:37;;;;;;;6.50;5.60;;;;;;;5.84;76.91;99096.50;103839;1285;74679;-87
2024/02/15 10:18:08;;;;;;;7.60;5.80;;;;;;;5.97;76.64;99088.94;104327;1281;73536;-86
2024/02/15 10:20:38;;;;;;;7.80;4.50;;;;;;;6.08;76.56;99089.59;103283;1294;61157;-85
2024/02/15 10:23:08;;;;;;;7.90;5.20;;;;;;;6.20;75.49;99089.63;103126;1284;61205;-86
2024/02/15 10:25:41;;;;;;;7.70;5.10;;;;;;;6.31;73.64;99090.80;105916;1282;73623;-86
2024/02/15 10:28:12;;;;;;;7.60;4.70;;;;;;;6.43;71.38;99089.56;103502;1283;73033;-87
2024/02/15 10:30:44;;;;;;;9.40;4.10;;;;;;;6.54;69.75;99092.34;103160;1283;72398;-87
2024/02/15 10:33:23;;;;;;;6.70;3.50;;;;;;;6.66;69.63;99090.42;103406;1281;61220;-87
2024/02/15 10:36:05;;;;;;;6.30;3.80;;;;;;;6.81;68.69;99085.64;104164;1283;61297;-84
2024/02/15 10:38:32;;;;;;;4.40;3.10;;;;;;;6.96;68.07;99087.16;103458;1288;73545;-84
2024/02/15 10:41:04;;;;;;;5.30;3.60;;;;;;;7.10;66.52;99080.31;103602;1281;75301;-85
2024/02/15 10:43:35;;;;;;;5.00;3.00;;;;;;;7.29;66.26;99077.89;104195;1283;74226;-84
2024/02/15 10:46:02;;;;;;;6.20;3.80;;;;;;;7.45;64.57;99079.09;103233;1287;61302;-85
2024/02/15 10:48:30;;;;;;;6.90;5.40;;;;;;;7.62;63.37;99079.58;103671;1282;61122;-86
2024/02/15 10:50:59;;;;;;;9.10;5.80;;;;;;;7.79;62.27;99079.17;103807;1285;74004;-85
2024/02/15 10:53:27;;;;;;;9.30;5.10;;;;;;;8.00;61.83;99078.88;103393;1287;75868;-85
2024/02/15 10:56:19;;;;;;;9.00;4.90;;;;;;;8.20;60.89;99078.80;104156;1282;73051;-85
2024/02/15 10:58:47;;;;;;;6.10;3.90;;;;;;;8.43;59.99;99077.16;103580;1284;61677;-88
2024/02/15 11:01:33;;;;;;;;;;;;;;;;;;;;;
2024/02/15 11:04:35;;;;;;;5.80;4.10;;;;;;;8.90;58.86;99071.58;103574;1283;74106;-87
2024/02/15 11:07:03;;;;;;;5.40;3.80;;;;;;;9.13;59.46;99072.36;103756;1285;74084;-88
2024/02/15 11:09:31;;;;;;;6.90;4.30;;;;;;;9.39;58.64;99065.45;103524;1283;73779;-86
2024/02/15 11:11:58;;;;;;;6.90;6.20;;;;;;;9.67;58.44;99062.48;103431;1285;61135;-87
2024/02/15 11:14:34;;;;;;;10.10;5.80;;;;;;;9.96;57.53;99058.89;103701;1282;61168;-87
2024/02/15 11:17:02;;;;;;;13.80;7.20;;;;;;;10.27;56.34;99063.27;103842;1283;74540;-86
2024/02/15 11:19:32;;;;;;;6.00;5.00;;;;;;;10.55;54.78;99061.84;103769;1285;75347;-87
2024/02/15 11:22:03;;;;;;;7.20;4.60;;;;;;;10.79;53.27;99056.86;103908;1283;73065;-86
2024/02/15 11:24:43;;;;;;;4.60;4.00;;;;;;;10.98;52.35;99058.20;104077;1282;61058;-86
2024/02/15 11:27:15;;;;;;;4.90;4.00;;;;;;;11.17;51.69;99052.58;103900;1288;61096;-87
2024/02/15 11:29:51;;;;;;;4.60;3.40;;;;;;;11.33;50.59;99044.94;103291;1287;73532;-88
2024/02/15 11:32:47;;;;;;;5.30;3.20;;;;;;;11.54;50.91;99046.14;104212;1286;74676;-86
2024/02/15 11:35:20;;;;;;;5.30;2.70;;;;;;;11.83;49.86;99046.86;104046;1282;72759;-86
2024/02/15 11:37:52;;;;;;;7.80;2.80;;;;;;;12.08;49.09;99042.91;104096;1282;61224;-85
2024/02/15 11:40:29;;;;;;;4.30;2.50;;;;;;;12.36;48.90;99044.69;103203;1288;61237;-86
2024/02/15 11:42:59;;;;;;;2.70;2.40;;;;;;;12.67;47.74;99037.21;104836;1283;74845;-87
2024/02/15 11:45:32;;;;;;;5.00;3.00;;;;;;;12.98;47.19;99036.04;104041;1283;75495;-85
2024/02/15 11:48:01;;;;;;;3.50;2.70;;;;;;;13.29;46.10;99031.91;104119;1281;72884;-86
2024/02/15 11:50:34;;;;;;;3.30;2.60;;;;;;;13.55;44.96;99029.92;104443;1282;61576;-85
2024/02/15 11:53:08;;;;;;;2.60;2.40;;;;;;;13.79;44.24;99026.54;104028;1286;61356;-88
2024/02/15 11:55:59;;;;;;;5.70;2.50;;;;;;;14.04;43.66;99025.67;103943;1283;73807;-89
2024/02/15 11:58:41;;;;;;;3.20;2.10;;;;;;;14.31;42.66;99022.95;103620;1283;75021;-90